Merrifield, Minnesota
Current Conditions -  °F | °C
As of 10:53 PM on Tuesday 25 Nov 2014 (Local Time) from KBRD Reporting Station
Overcast Overcast  
Wind Chill: 18°   Ceiling: 4200
Heat Index: 18°   Visibility: 10mi
Dew Point:   Wind: 3mph
Humidity: 68%   Direction: 60°ENE
Pressure: 30.02"   Gusts: NA
Location:  46.46°N, 94.17°W
Report Text: KBRD 260453Z AUTO 06003KT 10SM OVC042 M08/M13 A3002 RMK AO2 SLP192 T10781128
Loading
Personal Weather Stations






























Interactive Weather Map New forecast layout! Learn more

10-Day Weather Forecast

Advertisements
Track Severe Weather on mobile